createdAt,value
2023-01-11T00:01:25.305Z,5.90
2023-01-11T00:03:52.917Z,5.95
2023-01-11T00:06:20.573Z,5.57
2023-01-11T00:08:49.552Z,5.72
2023-01-11T00:11:17.364Z,5.82
2023-01-11T00:13:45.805Z,5.90
2023-01-11T00:16:13.323Z,5.25
2023-01-11T00:18:40.829Z,5.65
2023-01-11T00:21:08.936Z,5.63
2023-01-11T00:23:37.496Z,5.25
2023-01-11T00:26:08.880Z,5.97
2023-01-11T00:28:36.537Z,5.78
2023-01-11T00:31:04.553Z,6.75
2023-01-11T00:33:32.267Z,7.30
2023-01-11T00:35:59.860Z,7.40
2023-01-11T00:38:27.614Z,6.80
2023-01-11T00:40:55.684Z,7.28
2023-01-11T00:43:24.768Z,7.38
2023-01-11T00:45:52.796Z,6.63
2023-01-11T00:48:20.399Z,6.50
2023-01-11T00:50:47.879Z,6.88
2023-01-11T00:53:15.424Z,6.80
2023-01-11T00:55:43.063Z,6.68
2023-01-11T00:58:10.672Z,7.03
2023-01-11T01:00:39.647Z,6.95
2023-01-11T01:03:13.420Z,7.90
2023-01-11T01:05:44.502Z,7.60
2023-01-11T01:08:12.908Z,7.28
2023-01-11T01:10:43.206Z,6.50
2023-01-11T01:13:20.100Z,6.95
2023-01-11T01:15:50.944Z,7.10
2023-01-11T01:18:20.707Z,8.38
2023-01-11T01:20:50.765Z,7.00
2023-01-11T01:23:18.766Z,7.65
2023-01-11T01:25:46.276Z,7.32
2023-01-11T01:28:13.820Z,6.80
2023-01-11T01:30:41.360Z,6.78
2023-01-11T01:33:10.291Z,7.13
2023-01-11T01:35:38.276Z,7.80
2023-01-11T01:38:06.256Z,7.28
2023-01-11T01:40:33.798Z,6.70
2023-01-11T01:43:01.346Z,7.88
2023-01-11T01:45:29.059Z,8.07
2023-01-11T01:48:00.312Z,6.97
2023-01-11T01:50:33.851Z,7.20
2023-01-11T01:53:06.159Z,6.57
2023-01-11T01:55:39.213Z,7.35
2023-01-11T01:58:12.012Z,7.88
2023-01-11T02:00:42.413Z,9.90
2023-01-11T02:03:11.215Z,8.07
2023-01-11T02:05:41.478Z,8.55
2023-01-11T02:08:17.409Z,8.38
2023-01-11T02:10:45.226Z,7.70
2023-01-11T02:13:13.251Z,7.22
2023-01-11T02:15:41.217Z,6.97
2023-01-11T02:18:12.504Z,8.10
2023-01-11T02:21:01.865Z,6.95
2023-01-11T02:23:52.558Z,6.93
2023-01-11T02:26:47.760Z,6.80
2023-01-11T02:29:30.192Z,6.35
2023-01-11T02:32:10.317Z,7.80
2023-01-11T02:34:45.092Z,6.22
2023-01-11T02:37:26.074Z,7.22
2023-01-11T02:40:02.987Z,6.97
2023-01-11T02:42:38.963Z,7.18
2023-01-11T02:45:17.609Z,6.72
2023-01-11T02:47:51.854Z,7.03
2023-01-11T02:50:28.264Z,6.97
2023-01-11T02:53:00.720Z,6.63
2023-01-11T02:55:32.655Z,7.55
2023-01-11T02:58:02.676Z,6.65
2023-01-11T03:00:32.192Z,7.18
2023-01-11T03:03:07.709Z,5.93
2023-01-11T03:05:38.583Z,6.32
2023-01-11T03:08:21.961Z,6.88
2023-01-11T03:11:01.275Z,7.38
2023-01-11T03:13:42.025Z,6.75
2023-01-11T03:16:24.897Z,6.72
2023-01-11T03:19:12.600Z,5.25
2023-01-11T03:21:51.118Z,6.00
2023-01-11T03:24:29.402Z,6.00
2023-01-11T03:27:09.207Z,5.60
2023-01-11T03:29:44.005Z,6.03
2023-01-11T03:32:22.294Z,6.63
2023-01-11T03:35:01.760Z,5.90
2023-01-11T03:37:36.220Z,5.97
2023-01-11T03:40:09.675Z,6.43
2023-01-11T03:42:41.202Z,6.93
2023-01-11T03:45:10.383Z,6.80
2023-01-11T03:47:39.540Z,6.07
2023-01-11T03:50:12.209Z,6.43
2023-01-11T03:52:42.700Z,6.78
2023-01-11T03:55:14.730Z,6.97
2023-01-11T03:57:46.741Z,6.80
2023-01-11T04:00:14.851Z,7.45
2023-01-11T04:02:43.767Z,7.30
2023-01-11T04:05:12.004Z,6.90
2023-01-11T04:07:39.520Z,7.25
2023-01-11T04:10:08.571Z,7.93
2023-01-11T04:12:36.066Z,6.35
2023-01-11T04:15:05.052Z,7.85
2023-01-11T04:17:32.749Z,8.40
2023-01-11T04:20:01.729Z,7.75
2023-01-11T04:22:29.257Z,7.70
2023-01-11T04:24:56.659Z,8.60
2023-01-11T04:27:24.174Z,9.05
2023-01-11T04:29:51.717Z,7.15
2023-01-11T04:32:19.274Z,10.15
2023-01-11T04:34:46.784Z,8.98
2023-01-11T04:37:15.817Z,8.93
2023-01-11T04:39:43.461Z,8.85
2023-01-11T04:42:12.438Z,8.10
2023-01-11T04:44:40.226Z,8.93
2023-01-11T04:47:07.851Z,7.18
2023-01-11T04:49:35.394Z,6.40
2023-01-11T04:52:02.921Z,8.48
2023-01-11T04:54:31.803Z,9.23
2023-01-11T04:56:59.588Z,9.32
2023-01-11T04:59:27.953Z,9.85
2023-01-11T05:01:55.473Z,9.70
2023-01-11T05:04:23.209Z,10.43
2023-01-11T05:06:50.816Z,11.43
2023-01-11T05:09:19.791Z,11.80
2023-01-11T05:11:48.882Z,11.63
2023-01-11T05:14:16.800Z,11.38
2023-01-11T05:16:44.508Z,11.70
2023-01-11T05:19:12.338Z,11.23
2023-01-11T05:21:41.184Z,14.15
2023-01-11T05:24:12.191Z,13.38
2023-01-11T05:26:41.930Z,14.25
2023-01-11T05:31:40.819Z,17.17
2023-01-11T05:34:10.043Z,17.20
2023-01-11T05:36:37.484Z,17.00
2023-01-11T05:39:05.614Z,17.00
2023-01-11T05:41:33.654Z,17.35
2023-01-11T05:44:01.358Z,16.20
2023-01-11T05:46:31.068Z,47.63
2023-01-11T05:51:26.796Z,21.88
2023-01-11T05:53:54.532Z,22.45
2023-01-11T05:56:22.055Z,32.95
2023-01-11T05:58:51.193Z,30.05
2023-01-11T06:01:21.260Z,26.45
2023-01-11T06:03:51.034Z,24.63
2023-01-11T06:08:47.469Z,24.37
2023-01-11T06:11:15.292Z,23.05
2023-01-11T06:13:42.785Z,22.27
2023-01-11T06:16:12.679Z,21.25
2023-01-11T06:18:42.731Z,19.90
2023-01-11T06:21:12.430Z,18.73
2023-01-11T06:26:10.352Z,16.75
2023-01-11T06:28:38.834Z,16.20
2023-01-11T06:31:06.976Z,16.55
2023-01-11T06:33:37.695Z,16.50
2023-01-11T06:36:06.980Z,16.80
2023-01-11T06:38:37.165Z,16.48
2023-01-11T06:41:06.846Z,16.35
2023-01-11T06:43:34.862Z,15.18
2023-01-11T06:46:02.517Z,16.80
2023-01-11T06:48:30.735Z,16.38
2023-01-11T06:50:58.926Z,16.85
2023-01-11T06:53:29.063Z,17.35
2023-01-11T06:55:58.945Z,16.27
2023-01-11T06:58:27.068Z,15.65
2023-01-11T07:00:57.045Z,19.90
2023-01-11T07:03:25.269Z,15.98
2023-01-11T07:05:53.918Z,16.33
2023-01-11T07:08:21.994Z,16.15
2023-01-11T07:10:50.338Z,17.95
2023-01-11T07:13:20.902Z,17.70
2023-01-11T07:15:49.949Z,17.08
2023-01-11T07:18:18.911Z,19.00
2023-01-11T07:20:47.240Z,19.00
2023-01-11T07:23:14.971Z,19.80
2023-01-11T07:25:42.623Z,21.45
2023-01-11T07:28:10.618Z,18.67
2023-01-11T07:30:56.251Z,19.88
2023-01-11T07:33:26.236Z,23.42
2023-01-11T07:35:54.285Z,20.33
2023-01-11T07:38:22.150Z,19.95
2023-01-11T07:40:49.823Z,18.95
2023-01-11T07:43:17.467Z,18.60
2023-01-11T07:45:48.579Z,18.75
2023-01-11T07:48:17.264Z,17.02
2023-01-11T07:50:45.495Z,17.65
2023-01-11T07:53:14.185Z,18.73
2023-01-11T07:55:41.999Z,17.35
2023-01-11T07:58:11.703Z,19.63
2023-01-11T08:00:40.194Z,18.55
2023-01-11T08:03:09.626Z,18.55
2023-01-11T08:05:37.340Z,19.77
2023-01-11T08:08:05.675Z,16.88
2023-01-11T08:10:33.807Z,17.05
2023-01-11T08:13:01.786Z,17.75
2023-01-11T08:15:29.913Z,18.42
2023-01-11T08:17:58.282Z,16.77
2023-01-11T08:20:27.254Z,19.88
2023-01-11T08:22:55.752Z,18.27
2023-01-11T08:25:23.460Z,18.20
2023-01-11T08:27:51.499Z,20.00
2023-01-11T08:30:20.121Z,21.45
2023-01-11T08:32:48.670Z,19.80
2023-01-11T08:35:17.085Z,19.27
2023-01-11T08:37:46.976Z,20.40
2023-01-11T08:40:15.181Z,20.50
2023-01-11T08:42:43.517Z,20.70
2023-01-11T08:45:12.110Z,20.73
2023-01-11T08:47:40.328Z,19.85
2023-01-11T08:50:09.779Z,19.20
2023-01-11T08:52:37.273Z,19.03
2023-01-11T08:55:07.289Z,18.95
2023-01-11T08:57:35.644Z,19.70
2023-01-11T09:00:04.323Z,20.17
2023-01-11T09:02:31.869Z,19.25
2023-01-11T09:04:59.398Z,18.60
2023-01-11T09:07:26.827Z,19.67
2023-01-11T09:09:54.440Z,18.45
2023-01-11T09:12:23.519Z,18.60
2023-01-11T09:14:51.304Z,62.67
2023-01-11T09:17:19.077Z,27.38
2023-01-11T09:19:47.117Z,20.77
2023-01-11T09:22:14.673Z,20.88
2023-01-11T09:24:42.253Z,20.60
2023-01-11T09:27:09.982Z,32.08
2023-01-11T09:29:39.185Z,32.60
2023-01-11T09:32:07.059Z,24.63
2023-01-11T09:34:34.838Z,23.05
2023-01-11T09:37:03.644Z,22.00
2023-01-11T09:39:31.200Z,22.53
2023-01-11T09:42:15.291Z,22.45
2023-01-11T09:44:50.487Z,23.63
2023-01-11T09:47:28.519Z,21.85
2023-01-11T09:50:03.270Z,21.38
2023-01-11T09:52:34.921Z,23.08
2023-01-11T09:55:02.584Z,22.50
2023-01-11T09:57:45.640Z,25.13
2023-01-11T10:00:23.652Z,26.52
2023-01-11T10:03:16.710Z,22.25
2023-01-11T10:06:02.028Z,25.48
2023-01-11T10:18:31.012Z,29.83
2023-01-11T10:18:37.854Z,30.00
2023-01-11T10:20:51.447Z,31.85
2023-01-11T10:23:24.548Z,30.40
2023-01-11T10:25:55.815Z,29.92
2023-01-11T10:28:27.887Z,30.75
2023-01-11T10:30:56.995Z,29.58
2023-01-11T10:33:35.181Z,32.67
2023-01-11T10:36:06.873Z,32.38
2023-01-11T10:38:38.202Z,31.27
2023-01-11T10:41:13.432Z,29.98
2023-01-11T10:43:44.419Z,29.00
2023-01-11T10:46:15.652Z,29.15
2023-01-11T10:48:46.198Z,30.02
2023-01-11T10:51:24.861Z,32.38
2023-01-11T10:54:01.163Z,28.55
2023-01-11T10:57:02.967Z,29.50
2023-01-11T11:00:04.390Z,28.25
2023-01-11T11:02:59.903Z,26.65
2023-01-11T11:05:37.611Z,25.42
2023-01-11T11:08:13.211Z,24.30
2023-01-11T11:10:49.852Z,23.80
2023-01-11T11:13:24.071Z,25.70
2023-01-11T11:15:57.109Z,24.38
2023-01-11T11:18:25.024Z,23.67
2023-01-11T11:20:53.942Z,23.67
2023-01-11T11:23:25.390Z,24.35
2023-01-11T11:25:58.538Z,24.92
2023-01-11T11:28:28.182Z,24.02
2023-01-11T11:30:59.330Z,22.73
2023-01-11T11:33:32.967Z,24.02
2023-01-11T11:36:04.048Z,24.80
2023-01-11T11:38:33.386Z,25.92
2023-01-11T11:41:06.998Z,27.80
2023-01-11T11:43:35.988Z,25.25
2023-01-11T11:46:05.344Z,25.00
2023-01-11T11:48:34.844Z,24.77
2023-01-11T11:53:39.189Z,41.40
2023-01-11T11:56:14.703Z,24.50
2023-01-11T11:58:44.799Z,25.85
2023-01-11T12:01:28.835Z,23.52
2023-01-11T12:04:01.508Z,22.75
2023-01-11T12:06:31.819Z,23.35
2023-01-11T12:09:02.670Z,22.67
2023-01-11T12:11:33.775Z,23.30
2023-01-11T12:14:05.270Z,23.10
2023-01-11T12:16:39.904Z,24.48
2023-01-11T12:19:27.342Z,21.65
2023-01-11T12:22:11.423Z,21.13
2023-01-11T12:24:39.880Z,21.20
2023-01-11T12:27:17.936Z,20.75
2023-01-11T12:30:03.787Z,21.35
2023-01-11T12:32:52.022Z,21.20
2023-01-11T12:35:34.660Z,20.63
2023-01-11T12:38:26.456Z,20.73
2023-01-11T12:41:08.641Z,22.30
2023-01-11T12:43:53.082Z,20.48
2023-01-11T12:46:30.003Z,20.77
2023-01-11T12:49:15.928Z,18.17
2023-01-11T12:52:01.350Z,17.52
2023-01-11T12:54:47.933Z,19.83
2023-01-11T12:57:26.943Z,17.13
2023-01-11T13:00:17.727Z,18.15
2023-01-11T13:03:08.761Z,17.85
2023-01-11T13:05:46.285Z,17.38
2023-01-11T13:08:22.045Z,16.58
2023-01-11T13:11:01.212Z,16.10
2023-01-11T13:13:36.698Z,17.52
2023-01-11T13:16:13.001Z,17.88
2023-01-11T13:18:47.620Z,16.10
2023-01-11T13:21:26.534Z,17.10
2023-01-11T13:23:57.135Z,20.08
2023-01-11T13:26:31.099Z,19.20
2023-01-11T13:29:01.849Z,18.40
2023-01-11T13:31:30.388Z,17.52
2023-01-11T13:34:02.843Z,16.10
2023-01-11T13:36:38.800Z,15.75
2023-01-11T13:39:14.327Z,14.90
2023-01-11T13:41:47.736Z,14.23
2023-01-11T13:44:21.556Z,13.82
2023-01-11T13:47:02.963Z,13.48
2023-01-11T13:49:44.614Z,13.43
2023-01-11T13:52:14.963Z,14.93
2023-01-11T13:54:49.763Z,14.13
2023-01-11T13:57:24.885Z,15.27
2023-01-11T13:59:57.836Z,16.10
2023-01-11T14:02:38.060Z,15.95
2023-01-11T14:05:14.828Z,14.85
2023-01-11T14:07:54.452Z,14.95
2023-01-11T14:10:33.523Z,13.60
2023-01-11T14:13:16.798Z,13.93
2023-01-11T14:15:54.763Z,14.00
2023-01-11T14:18:33.658Z,16.77
2023-01-11T14:21:07.984Z,16.55
2023-01-11T14:23:45.135Z,15.07
2023-01-11T14:26:35.537Z,14.80
2023-01-11T14:29:43.516Z,13.75
2023-01-11T14:32:35.210Z,14.65
2023-01-11T14:35:44.963Z,14.23
2023-01-11T14:38:33.880Z,12.65
2023-01-11T14:41:27.845Z,13.60
2023-01-11T14:44:13.631Z,12.38
2023-01-11T14:47:24.541Z,13.82
2023-01-11T14:50:06.259Z,12.60
2023-01-11T14:52:40.786Z,14.57
2023-01-11T14:55:16.611Z,13.52
2023-01-11T14:57:59.420Z,15.52
2023-01-11T15:01:11.149Z,13.82
2023-01-11T15:03:58.455Z,17.33
2023-01-11T15:06:31.456Z,17.05
2023-01-11T15:08:58.912Z,18.13
2023-01-11T15:11:33.024Z,12.30
2023-01-11T15:14:04.532Z,14.23
2023-01-11T15:16:34.475Z,10.05
2023-01-11T15:19:06.237Z,12.10
2023-01-11T15:21:40.876Z,13.20
2023-01-11T15:24:22.075Z,11.63
2023-01-11T15:26:51.203Z,12.48
2023-01-11T15:29:23.625Z,12.43
2023-01-11T15:32:15.626Z,12.00
2023-01-11T15:34:46.817Z,12.07
2023-01-11T15:37:42.698Z,12.15
2023-01-11T15:40:18.602Z,11.70
2023-01-11T15:43:21.664Z,11.40
2023-01-11T15:46:29.292Z,11.73
2023-01-11T15:49:41.357Z,11.35
2023-01-11T15:52:40.951Z,11.45
2023-01-11T15:58:25.860Z,10.40
2023-01-11T16:01:20.695Z,9.77
2023-01-11T16:04:02.752Z,10.52
2023-01-11T16:06:41.099Z,10.45
2023-01-11T16:09:40.863Z,11.23
2023-01-11T16:12:28.942Z,10.98
2023-01-11T16:15:30.001Z,10.35
2023-01-11T16:18:05.778Z,9.98
2023-01-11T16:20:33.642Z,10.27
2023-01-11T16:23:04.562Z,11.30
2023-01-11T16:25:39.010Z,10.70
2023-01-11T16:28:08.775Z,11.38
2023-01-11T16:30:36.416Z,11.43
2023-01-11T16:33:20.490Z,11.40
2023-01-11T16:35:48.250Z,10.52
2023-01-11T16:38:20.765Z,10.93
2023-01-11T16:40:53.369Z,10.50
2023-01-11T16:43:25.352Z,10.43
2023-01-11T16:45:53.997Z,11.90
2023-01-11T16:48:23.565Z,11.10
2023-01-11T16:51:00.596Z,10.10
2023-01-11T16:53:29.497Z,11.55
2023-01-11T16:56:02.182Z,11.05
2023-01-11T16:58:31.298Z,10.88
2023-01-11T17:01:01.022Z,10.50
2023-01-11T17:03:30.312Z,10.25
2023-01-11T17:06:16.848Z,10.65
2023-01-11T17:08:47.451Z,10.20
2023-01-11T17:11:24.110Z,10.30
2023-01-11T17:14:09.497Z,8.88
2023-01-11T17:16:42.126Z,9.18
2023-01-11T17:19:15.171Z,10.02
2023-01-11T17:21:48.654Z,8.73
2023-01-11T17:24:17.400Z,8.98
2023-01-11T17:26:48.941Z,9.35
2023-01-11T17:29:23.633Z,9.82
2023-01-11T17:31:51.442Z,9.63
2023-01-11T17:34:23.880Z,8.80
2023-01-11T17:36:51.853Z,8.90
2023-01-11T17:39:23.402Z,9.15
2023-01-11T17:41:53.141Z,8.65
2023-01-11T17:44:23.566Z,8.20
2023-01-11T17:46:51.287Z,9.52
2023-01-11T17:49:22.829Z,9.07
2023-01-11T17:51:50.664Z,8.68
2023-01-11T17:54:20.897Z,9.13
2023-01-11T17:56:56.047Z,8.25
2023-01-11T17:59:26.774Z,9.05
2023-01-11T18:01:56.996Z,8.38
2023-01-11T18:04:26.803Z,8.02
2023-01-11T18:06:56.646Z,7.72
2023-01-11T18:09:27.413Z,8.07
2023-01-11T18:12:08.479Z,7.68
2023-01-11T18:14:41.020Z,7.78
2023-01-11T18:17:36.413Z,7.43
2023-01-11T18:20:30.970Z,8.00
2023-01-11T18:23:03.147Z,8.10
2023-01-11T18:25:35.690Z,7.95
2023-01-11T18:28:38.588Z,8.25
2023-01-11T18:31:06.833Z,8.70
2023-01-11T18:33:35.019Z,8.55
2023-01-11T18:36:04.568Z,8.40
2023-01-11T18:38:33.526Z,8.82
2023-01-11T18:41:06.447Z,7.55
2023-01-11T18:43:34.924Z,9.02
2023-01-11T18:46:04.496Z,9.80
2023-01-11T18:48:31.997Z,8.57
2023-01-11T18:50:59.556Z,9.43
2023-01-11T18:53:27.127Z,9.23
2023-01-11T18:55:54.884Z,8.23
2023-01-11T18:58:22.372Z,8.25
2023-01-11T19:00:50.889Z,9.30
2023-01-11T19:03:19.928Z,8.38
2023-01-11T19:05:47.497Z,8.57
2023-01-11T19:08:15.199Z,6.68
2023-01-11T19:10:42.896Z,7.95
2023-01-11T19:13:11.059Z,8.73
2023-01-11T19:15:38.709Z,8.07
2023-01-11T19:18:06.491Z,6.82
2023-01-11T19:20:37.170Z,7.85
2023-01-11T19:23:04.717Z,8.13
2023-01-11T19:25:32.392Z,9.70
2023-01-11T19:28:01.960Z,7.82
2023-01-11T19:32:57.581Z,8.40
2023-01-11T19:35:25.136Z,7.90
2023-01-11T19:37:53.790Z,7.30
2023-01-11T19:40:21.565Z,9.47
2023-01-11T19:42:49.201Z,8.05
2023-01-11T19:45:17.090Z,7.43
2023-01-11T19:47:44.674Z,8.23
2023-01-11T19:50:12.143Z,6.80
2023-01-11T19:52:39.839Z,6.07
2023-01-11T19:55:09.937Z,7.65
2023-01-11T19:57:37.476Z,7.45
2023-01-11T20:00:05.625Z,6.72
2023-01-11T20:02:39.713Z,7.22
2023-01-11T20:05:08.200Z,7.32
2023-01-11T20:07:35.647Z,7.45
2023-01-11T20:10:03.399Z,6.65
2023-01-11T20:12:32.475Z,8.02
2023-01-11T20:15:00.142Z,7.03
2023-01-11T20:17:27.851Z,7.72
2023-01-11T20:19:55.947Z,7.63
2023-01-11T20:22:24.791Z,7.18
2023-01-11T20:24:52.339Z,6.97
2023-01-11T20:27:20.312Z,6.82
2023-01-11T20:29:49.260Z,7.97
2023-01-11T20:32:39.262Z,7.93
2023-01-11T20:35:06.014Z,8.30
2023-01-11T20:37:33.555Z,8.30
2023-01-11T20:40:01.058Z,8.20
2023-01-11T20:42:29.023Z,6.57
2023-01-11T20:44:58.253Z,8.65
2023-01-11T20:47:25.702Z,7.88
2023-01-11T20:49:53.274Z,7.40
2023-01-11T20:52:20.805Z,7.72
2023-01-11T20:54:48.319Z,7.60
2023-01-11T20:57:15.902Z,8.52
2023-01-11T20:59:43.487Z,9.07
2023-01-11T21:02:12.561Z,8.45
2023-01-11T21:04:40.273Z,7.60
2023-01-11T21:07:07.944Z,9.45
2023-01-11T21:09:35.505Z,9.10
2023-01-11T21:12:03.031Z,8.82
2023-01-11T21:14:31.009Z,8.30
2023-01-11T21:16:58.472Z,10.10
2023-01-11T21:19:27.420Z,8.98
2023-01-11T21:21:54.831Z,9.23
2023-01-11T21:24:22.288Z,8.77
2023-01-11T21:26:49.913Z,9.30
2023-01-11T21:29:17.842Z,9.20
2023-01-11T21:31:45.404Z,9.82
2023-01-11T21:34:13.908Z,8.80
2023-01-11T21:36:43.528Z,10.55
2023-01-11T21:41:39.689Z,9.63
2023-01-11T21:44:07.984Z,9.15
2023-01-11T21:46:35.861Z,9.43
2023-01-11T21:49:03.684Z,8.07
2023-01-11T21:51:31.271Z,8.23
2023-01-11T21:54:00.296Z,9.43
2023-01-11T21:56:27.775Z,9.85
2023-01-11T21:58:55.214Z,9.90
2023-01-11T22:01:22.710Z,8.48
2023-01-11T22:03:50.519Z,9.20
2023-01-11T22:06:18.283Z,8.82
2023-01-11T22:08:46.308Z,9.65
2023-01-11T22:11:16.786Z,9.02
2023-01-11T22:13:44.625Z,8.48
2023-01-11T22:16:14.566Z,8.07
2023-01-11T22:18:42.601Z,8.32
2023-01-11T22:21:11.966Z,7.78
2023-01-11T22:23:40.550Z,7.65
2023-01-11T22:26:10.218Z,8.63
2023-01-11T22:31:07.007Z,7.32
2023-01-11T22:33:36.872Z,8.00
2023-01-11T22:36:04.892Z,7.80
2023-01-11T22:38:33.002Z,6.85
2023-01-11T22:41:00.461Z,7.10
2023-01-11T22:43:28.590Z,6.45
2023-01-11T22:45:59.669Z,7.43
2023-01-11T22:48:27.903Z,6.70
2023-01-11T22:50:55.885Z,6.53
2023-01-11T22:53:23.465Z,5.90
2023-01-11T22:55:50.931Z,6.70
2023-01-11T22:58:18.359Z,6.13
2023-01-11T23:00:45.819Z,6.45
2023-01-11T23:03:15.649Z,6.20
2023-01-11T23:05:45.000Z,5.75
2023-01-11T23:08:12.747Z,5.32
2023-01-11T23:10:41.400Z,5.43
2023-01-11T23:13:09.765Z,5.00
2023-01-11T23:15:38.730Z,4.90
2023-01-11T23:18:06.578Z,5.80
2023-01-11T23:20:35.820Z,4.55
2023-01-11T23:23:03.314Z,5.05
2023-01-11T23:25:30.766Z,4.57
2023-01-11T23:27:58.221Z,5.22
2023-01-11T23:30:26.127Z,4.90
2023-01-11T23:32:53.617Z,4.45
2023-01-11T23:35:21.063Z,4.93
2023-01-11T23:37:49.922Z,4.70
2023-01-11T23:40:17.609Z,4.90
2023-01-11T23:42:45.053Z,4.95
2023-01-11T23:45:12.462Z,4.82
2023-01-11T23:47:39.906Z,4.43
2023-01-11T23:50:08.299Z,4.70
2023-01-11T23:52:35.775Z,4.72
2023-01-11T23:55:06.185Z,5.15
2023-01-11T23:57:33.627Z,5.20
